Time;durP1;ratioP1;P1;durP2;ratioP2;P2;SDS_P1;SDS_P2;PMS_P1;PMS_P2;Temp;Humidity;BMP_temperature;BMP_pressure;BME280_temperature;BME280_humidity;BME280_pressure;Samples;Min_cycle;Max_cycle;Signal;HPM_P1;HPM_P2
2021/07/19 00:00:22;;;;;;;;;;;15.40;99.90;;;;;;5094412;28;19908;-57
2021/07/19 00:02:47;;;;;;;;;;;15.40;99.90;;;;;;5094198;28;19915;-59
2021/07/19 00:05:14;;;;;;;;;;;15.30;99.90;;;;;;5093638;28;19928;-59
2021/07/19 00:07:40;;;;;;;;;;;15.30;99.90;;;;;;5094151;28;19937;-59
2021/07/19 00:10:06;;;;;;;;;;;15.30;99.90;;;;;;5094049;28;20380;-56
2021/07/19 00:12:32;;;;;;;;;;;15.30;99.90;;;;;;5093925;28;19915;-57
2021/07/19 00:14:57;;;;;;;;;;;15.30;99.90;;;;;;5092292;28;19908;-57
2021/07/19 00:17:23;;;;;;;;;;;15.20;99.90;;;;;;5093990;28;20006;-57
2021/07/19 00:19:50;;;;;;;;;;;15.30;99.90;;;;;;5093981;28;19937;-56
2021/07/19 00:22:19;;;;;;;;;;;15.20;99.90;;;;;;5075439;28;19915;-58
2021/07/19 00:24:44;;;;;;;;;;;15.20;99.90;;;;;;5075064;28;19919;-58
2021/07/19 00:27:10;;;;;;;;;;;15.20;99.90;;;;;;5075400;28;19928;-58
2021/07/19 00:29:36;;;;;;;;;;;15.20;99.90;;;;;;5091788;28;19908;-58
2021/07/19 00:32:01;;;;;;;;;;;15.20;99.90;;;;;;5091986;28;19940;-55
2021/07/19 00:34:27;;;;;;;;;;;15.20;99.90;;;;;;5092542;28;20286;-58
2021/07/19 00:36:54;;;;;;;;;;;15.20;99.90;;;;;;5075030;28;20304;-59
2021/07/19 00:39:20;;;;;;;;;;;15.20;99.90;;;;;;5093270;28;19961;-58
2021/07/19 00:41:45;;;;;;;;;;;15.10;99.90;;;;;;5093380;28;20327;-57
2021/07/19 00:44:11;;;;;;;;;;;15.20;99.90;;;;;;5093347;28;20289;-58
2021/07/19 00:46:36;;;;;;;;;;;15.20;99.90;;;;;;5093133;28;19908;-59
2021/07/19 00:49:02;;;;;;;;;;;15.20;99.90;;;;;;5093390;28;19939;-54
2021/07/19 00:51:27;;;;;;;;;;;15.20;99.90;;;;;;5093113;28;20346;-55
2021/07/19 00:53:53;;;;;;;;;;;15.20;99.90;;;;;;5092943;28;20060;-58
2021/07/19 00:56:19;;;;;;;;;;;15.20;99.90;;;;;;5092995;28;19908;-57
2021/07/19 00:58:47;;;;;;;;;;;15.20;99.90;;;;;;5088840;28;19919;-56
2021/07/19 01:01:13;;;;;;;;;;;15.30;99.90;;;;;;5090596;28;19981;-59
2021/07/19 01:03:40;;;;;;;;;;;15.30;99.90;;;;;;5089791;28;20290;-57
2021/07/19 01:06:06;;;;;;;;;;;15.20;99.90;;;;;;5092383;28;19931;-57
2021/07/19 01:08:32;;;;;;;;;;;15.20;99.90;;;;;;5092686;28;19943;-56
2021/07/19 01:10:57;;;;;;;;;;;15.20;99.90;;;;;;5092670;28;20028;-57
2021/07/19 01:13:23;;;;;;;;;;;15.30;99.90;;;;;;5092900;28;20503;-58
2021/07/19 01:15:48;;;;;;;;;;;15.20;99.90;;;;;;5092467;28;19909;-58
2021/07/19 01:18:14;;;;;;;;;;;15.30;99.90;;;;;;5092887;28;20337;-59
2021/07/19 01:20:58;;;;;;;;;;;15.30;99.90;;;;;;5092721;28;19984;-55
2021/07/19 01:23:41;;;;;;;;;;;15.30;99.90;;;;;;5085292;28;19943;-57
2021/07/19 01:26:07;;;;;;;;;;;15.30;99.90;;;;;;5092061;28;20385;-58
2021/07/19 01:31:16;;;;;;;;;;;15.30;99.90;;;;;;5049721;28;19924;-51
2021/07/19 01:33:47;;;;;;;;;;;15.30;99.90;;;;;;5051565;28;19909;-50
2021/07/19 01:36:14;;;;;;;;;;;15.30;99.90;;;;;;5051320;28;19928;-47
2021/07/19 01:38:39;;;;;;;;;;;15.30;99.90;;;;;;5051391;28;20027;-47
2021/07/19 01:41:05;;;;;;;;;;;15.30;99.90;;;;;;5051643;28;19920;-49
2021/07/19 01:43:31;;;;;;;;;;;15.30;99.90;;;;;;5051599;28;20390;-49
2021/07/19 01:45:56;;;;;;;;;;;15.30;99.90;;;;;;5051606;28;19909;-54
2021/07/19 01:48:22;;;;;;;;;;;15.30;99.90;;;;;;5051838;28;19917;-47
2021/07/19 01:50:48;;;;;;;;;;;15.30;99.90;;;;;;5051668;28;19992;-47
2021/07/19 01:53:15;;;;;;;;;;;15.30;99.90;;;;;;5051199;28;20008;-48
2021/07/19 01:55:41;;;;;;;;;;;15.30;99.90;;;;;;5051384;28;19915;-50
2021/07/19 01:58:06;;;;;;;;;;;15.40;99.90;;;;;;5051832;28;19995;-49
2021/07/19 02:00:32;;;;;;;;;;;15.40;99.90;;;;;;5051781;28;19909;-48
2021/07/19 02:02:57;;;;;;;;;;;15.40;99.90;;;;;;5051233;28;19908;-50
2021/07/19 02:05:23;;;;;;;;;;;15.40;99.90;;;;;;5032716;28;20031;-50
2021/07/19 02:07:51;;;;;;;;;;;15.40;99.90;;;;;;5051081;28;19972;-52
2021/07/19 02:10:16;;;;;;;;;;;15.30;99.90;;;;;;5046013;28;19909;-47
2021/07/19 02:12:43;;;;;;;;;;;15.40;99.90;;;;;;5051559;28;19909;-49
2021/07/19 02:15:11;;;;;;;;;;;15.40;99.90;;;;;;5050331;28;19909;-49
2021/07/19 02:17:37;;;;;;;;;;;15.40;99.90;;;;;;5051261;28;19947;-48
2021/07/19 02:20:06;;;;;;;;;;;15.50;99.90;;;;;;5051024;28;20370;-51
2021/07/19 02:22:31;;;;;;;;;;;15.40;99.90;;;;;;5050570;28;19913;-48
2021/07/19 02:24:57;;;;;;;;;;;15.40;99.90;;;;;;5050621;28;19944;-47
2021/07/19 02:27:22;;;;;;;;;;;15.40;99.90;;;;;;5050724;28;20249;-52
2021/07/19 02:29:48;;;;;;;;;;;15.40;99.90;;;;;;5050600;28;19917;-50
2021/07/19 02:32:15;;;;;;;;;;;15.40;99.90;;;;;;5051004;28;20386;-53
2021/07/19 02:34:41;;;;;;;;;;;15.40;99.90;;;;;;5045444;28;19920;-50
2021/07/19 02:37:07;;;;;;;;;;;15.40;99.90;;;;;;5032580;28;19909;-49
2021/07/19 02:39:35;;;;;;;;;;;15.40;99.90;;;;;;5050273;28;19943;-50
2021/07/19 02:42:01;;;;;;;;;;;15.40;99.90;;;;;;5050590;28;20056;-50
2021/07/19 02:44:26;;;;;;;;;;;15.40;99.90;;;;;;5050667;28;20019;-54
2021/07/19 02:46:52;;;;;;;;;;;15.40;99.90;;;;;;5050187;28;19931;-48
2021/07/19 02:49:18;;;;;;;;;;;15.40;99.90;;;;;;5050784;28;19916;-48
2021/07/19 02:51:44;;;;;;;;;;;15.40;99.90;;;;;;5050397;28;19916;-51
2021/07/19 02:54:10;;;;;;;;;;;15.40;99.90;;;;;;5050448;28;19972;-47
2021/07/19 02:56:36;;;;;;;;;;;15.50;99.90;;;;;;5050119;28;19962;-50
2021/07/19 02:59:02;;;;;;;;;;;15.40;99.90;;;;;;5050416;28;19916;-48
2021/07/19 03:01:28;;;;;;;;;;;15.40;99.90;;;;;;5032839;28;19909;-50
2021/07/19 03:03:55;;;;;;;;;;;15.40;99.90;;;;;;5049943;28;20441;-51
2021/07/19 03:06:27;;;;;;;;;;;15.40;99.90;;;;;;5050014;28;19939;-54
2021/07/19 03:08:53;;;;;;;;;;;15.40;99.90;;;;;;5032052;28;19988;-53
2021/07/19 03:11:37;;;;;;;;;;;15.40;99.90;;;;;;5050205;28;19909;-53
2021/07/19 03:14:06;;;;;;;;;;;15.40;99.90;;;;;;5050119;28;19995;-53
2021/07/19 03:16:31;;;;;;;;;;;15.40;99.90;;;;;;5049991;28;19919;-53
2021/07/19 03:18:57;;;;;;;;;;;15.30;99.90;;;;;;5050068;28;20387;-47
2021/07/19 03:21:24;;;;;;;;;;;15.30;99.90;;;;;;5049995;28;19909;-48
2021/07/19 03:23:51;;;;;;;;;;;15.30;99.90;;;;;;5049785;28;20015;-55
2021/07/19 03:26:19;;;;;;;;;;;15.30;99.90;;;;;;5041585;28;20008;-50
2021/07/19 03:28:45;;;;;;;;;;;15.30;99.90;;;;;;5049769;28;20390;-48
2021/07/19 03:31:11;;;;;;;;;;;15.30;99.90;;;;;;5049623;28;19913;-49
2021/07/19 03:33:41;;;;;;;;;;;15.30;99.90;;;;;;5049795;28;19908;-50
2021/07/19 03:36:08;;;;;;;;;;;15.30;99.90;;;;;;5049057;28;19909;-51
2021/07/19 03:38:34;;;;;;;;;;;15.40;99.90;;;;;;5049871;28;20043;-47
2021/07/19 03:40:59;;;;;;;;;;;15.40;99.90;;;;;;5049641;28;20383;-48
2021/07/19 03:43:25;;;;;;;;;;;15.40;99.90;;;;;;5049866;28;19909;-47
2021/07/19 03:45:51;;;;;;;;;;;15.40;99.90;;;;;;5049511;28;19917;-53
2021/07/19 03:48:17;;;;;;;;;;;15.40;99.90;;;;;;5049892;28;20315;-53
2021/07/19 03:50:42;;;;;;;;;;;15.40;99.90;;;;;;5049728;28;19959;-50
2021/07/19 03:53:08;;;;;;;;;;;15.40;99.90;;;;;;5049627;28;20020;-47
2021/07/19 03:55:34;;;;;;;;;;;15.40;99.90;;;;;;5043762;28;19962;-51
2021/07/19 03:58:00;;;;;;;;;;;15.40;99.90;;;;;;5049567;28;20334;-50
2021/07/19 04:00:26;;;;;;;;;;;15.40;99.90;;;;;;5049265;28;19909;-49
2021/07/19 04:02:54;;;;;;;;;;;15.40;99.90;;;;;;5049513;28;20276;-49
2021/07/19 04:05:24;;;;;;;;;;;15.40;99.90;;;;;;5049127;28;19912;-54
2021/07/19 04:07:50;;;;;;;;;;;15.40;99.90;;;;;;5049534;28;19909;-54
2021/07/19 04:10:20;;;;;;;;;;;15.40;99.90;;;;;;5049380;28;19975;-47
2021/07/19 04:12:47;;;;;;;;;;;15.40;99.90;;;;;;5049544;28;20291;-49
2021/07/19 04:15:13;;;;;;;;;;;15.40;99.90;;;;;;5031579;28;19912;-47
2021/07/19 04:17:38;;;;;;;;;;;15.40;99.90;;;;;;5049644;28;19956;-47
2021/07/19 04:20:05;;;;;;;;;;;15.50;99.90;;;;;;5049348;28;20401;-49
2021/07/19 04:22:31;;;;;;;;;;;15.50;99.90;;;;;;5049148;28;19920;-49
2021/07/19 04:24:57;;;;;;;;;;;15.50;99.90;;;;;;5049034;28;19919;-47
2021/07/19 04:27:23;;;;;;;;;;;15.50;99.90;;;;;;5049064;28;19931;-49
2021/07/19 04:29:49;;;;;;;;;;;15.50;99.90;;;;;;5049109;28;19969;-48
2021/07/19 04:32:18;;;;;;;;;;;15.40;99.90;;;;;;5043384;28;20290;-47
2021/07/19 04:34:43;;;;;;;;;;;15.40;99.90;;;;;;5044597;28;19974;-50
2021/07/19 04:37:09;;;;;;;;;;;15.40;99.90;;;;;;5031568;28;19944;-48
2021/07/19 04:39:38;;;;;;;;;;;15.40;99.90;;;;;;5052524;28;20367;-48
2021/07/19 04:42:04;;;;;;;;;;;15.40;99.90;;;;;;5052695;28;19995;-52
2021/07/19 04:44:30;;;;;;;;;;;15.40;99.90;;;;;;5052844;28;20434;-52
2021/07/19 04:46:56;;;;;;;;;;;15.40;99.90;;;;;;5052921;28;20474;-50
2021/07/19 04:49:21;;;;;;;;;;;15.40;99.90;;;;;;5052935;28;19913;-51
2021/07/19 04:51:47;;;;;;;;;;;15.40;99.90;;;;;;5052681;28;19959;-52
2021/07/19 04:54:17;;;;;;;;;;;15.40;99.90;;;;;;5052465;28;19955;-50
2021/07/19 04:56:43;;;;;;;;;;;15.40;99.90;;;;;;5052129;28;19916;-51
2021/07/19 04:59:09;;;;;;;;;;;15.40;99.90;;;;;;5052374;28;19913;-50
2021/07/19 05:01:35;;;;;;;;;;;15.50;99.90;;;;;;5052433;28;20283;-49
2021/07/19 05:04:02;;;;;;;;;;;15.50;99.90;;;;;;5052203;28;19917;-49
2021/07/19 05:06:28;;;;;;;;;;;15.50;99.90;;;;;;5052193;28;19916;-50
2021/07/19 05:08:54;;;;;;;;;;;15.50;99.90;;;;;;5052188;28;19909;-48
2021/07/19 05:11:21;;;;;;;;;;;15.40;99.90;;;;;;5052544;28;20371;-49
2021/07/19 05:13:47;;;;;;;;;;;15.50;99.90;;;;;;5052495;28;19955;-46
2021/07/19 05:16:13;;;;;;;;;;;15.40;99.90;;;;;;5052065;28;19912;-50
2021/07/19 05:18:39;;;;;;;;;;;15.50;99.90;;;;;;5052545;28;20058;-47
2021/07/19 05:21:05;;;;;;;;;;;15.50;99.90;;;;;;5050715;28;19916;-52
2021/07/19 05:23:30;;;;;;;;;;;15.50;99.90;;;;;;5052063;28;19989;-48
2021/07/19 05:25:56;;;;;;;;;;;15.60;99.90;;;;;;5033630;28;19912;-47
2021/07/19 05:28:21;;;;;;;;;;;15.60;99.90;;;;;;5052123;28;19977;-52
2021/07/19 05:30:48;;;;;;;;;;;15.70;99.90;;;;;;5033708;28;19916;-48
2021/07/19 05:33:15;;;;;;;;;;;15.70;99.90;;;;;;5051719;28;19909;-54
2021/07/19 05:35:41;;;;;;;;;;;15.70;99.90;;;;;;5051031;28;19920;-48
2021/07/19 05:38:07;;;;;;;;;;;15.70;99.90;;;;;;5051762;28;19936;-49
2021/07/19 05:40:33;;;;;;;;;;;15.70;99.90;;;;;;5051797;28;20310;-50
2021/07/19 05:42:59;;;;;;;;;;;15.80;99.90;;;;;;5051966;28;19915;-50
2021/07/19 05:45:24;;;;;;;;;;;15.80;99.90;;;;;;5051655;28;19940;-48
2021/07/19 05:47:50;;;;;;;;;;;15.90;99.90;;;;;;5051821;28;19909;-54
2021/07/19 05:50:16;;;;;;;;;;;16.00;99.90;;;;;;5051313;28;20421;-51
2021/07/19 05:52:41;;;;;;;;;;;16.00;99.90;;;;;;5033501;28;19913;-51
2021/07/19 05:55:07;;;;;;;;;;;16.10;99.90;;;;;;5050990;28;20011;-49
2021/07/19 05:57:33;;;;;;;;;;;16.20;99.90;;;;;;5051448;28;19970;-49
2021/07/19 05:59:59;;;;;;;;;;;16.30;99.90;;;;;;5051066;28;19913;-47
2021/07/19 06:02:25;;;;;;;;;;;16.30;99.90;;;;;;5051405;28;19916;-52
2021/07/19 06:04:50;;;;;;;;;;;16.40;99.90;;;;;;5051044;28;19966;-49
2021/07/19 06:07:16;;;;;;;;;;;16.50;99.90;;;;;;5051298;28;20406;-48
2021/07/19 06:09:41;;;;;;;;;;;16.50;99.90;;;;;;5051479;28;20451;-52
2021/07/19 06:12:07;;;;;;;;;;;16.50;99.90;;;;;;5051192;28;19909;-48
2021/07/19 06:14:33;;;;;;;;;;;16.50;99.90;;;;;;5051223;28;19909;-54
2021/07/19 06:16:58;;;;;;;;;;;16.50;99.90;;;;;;5051169;28;19916;-52
2021/07/19 06:19:23;;;;;;;;;;;16.60;99.90;;;;;;5051163;28;20007;-48
2021/07/19 06:21:49;;;;;;;;;;;16.70;99.90;;;;;;5051118;28;19916;-50
2021/07/19 06:24:14;;;;;;;;;;;16.70;99.90;;;;;;5050557;28;19919;-52
2021/07/19 06:26:40;;;;;;;;;;;16.70;99.90;;;;;;5050493;28;19909;-52
2021/07/19 06:29:05;;;;;;;;;;;16.80;99.90;;;;;;5050397;28;19920;-53
2021/07/19 06:31:31;;;;;;;;;;;16.90;99.90;;;;;;5032796;28;19920;-48
2021/07/19 06:33:57;;;;;;;;;;;16.90;99.90;;;;;;5050190;28;19933;-49
2021/07/19 06:36:22;;;;;;;;;;;17.00;99.90;;;;;;5050552;28;19931;-50
2021/07/19 06:38:48;;;;;;;;;;;17.00;99.90;;;;;;5050824;28;19920;-54
2021/07/19 06:41:14;;;;;;;;;;;16.90;99.90;;;;;;5050814;28;19904;-52
2021/07/19 06:43:40;;;;;;;;;;;16.90;99.90;;;;;;5045948;28;19962;-53
2021/07/19 06:46:05;;;;;;;;;;;17.00;99.90;;;;;;5050529;28;20504;-53
2021/07/19 06:48:31;;;;;;;;;;;17.00;99.90;;;;;;5050482;28;20329;-48
2021/07/19 06:50:59;;;;;;;;;;;17.10;99.90;;;;;;5049666;28;22475;-51
2021/07/19 06:53:24;;;;;;;;;;;17.10;99.90;;;;;;5050244;28;19976;-49
2021/07/19 06:55:49;;;;;;;;;;;17.10;99.90;;;;;;5050239;28;19912;-53
2021/07/19 06:58:15;;;;;;;;;;;17.10;99.90;;;;;;5048873;28;19915;-53
2021/07/19 07:00:40;;;;;;;;;;;17.20;99.90;;;;;;5049812;28;19916;-49
2021/07/19 07:03:06;;;;;;;;;;;17.10;99.90;;;;;;5050315;28;20287;-49
2021/07/19 07:05:31;;;;;;;;;;;17.00;99.90;;;;;;5049897;28;19912;-50
2021/07/19 07:07:57;;;;;;;;;;;17.00;99.90;;;;;;5050323;28;19916;-46
2021/07/19 07:10:22;;;;;;;;;;;16.90;99.90;;;;;;5050231;28;19920;-55
2021/07/19 07:12:48;;;;;;;;;;;16.90;99.90;;;;;;5032590;28;19909;-49
2021/07/19 07:15:13;;;;;;;;;;;17.00;99.90;;;;;;5049928;28;19959;-50
2021/07/19 07:17:40;;;;;;;;;;;17.00;99.90;;;;;;5050154;28;19908;-51
2021/07/19 07:20:06;;;;;;;;;;;17.10;99.90;;;;;;5049964;28;20018;-54
2021/07/19 07:22:31;;;;;;;;;;;17.00;99.90;;;;;;5031754;28;20311;-51
2021/07/19 07:24:57;;;;;;;;;;;17.20;99.90;;;;;;5049775;28;19920;-50
2021/07/19 07:27:24;;;;;;;;;;;17.30;99.90;;;;;;5049879;28;19909;-50
2021/07/19 07:29:49;;;;;;;;;;;17.30;99.90;;;;;;5069063;22;19929;-59
2021/07/19 07:32:15;;;;;;;;;;;17.40;99.90;;;;;;5072861;28;19914;-59
2021/07/19 07:34:41;;;;;;;;;;;17.40;99.90;;;;;;5080517;28;19908;-59
2021/07/19 07:37:08;;;;;;;;;;;17.50;99.90;;;;;;5072472;28;19908;-57
2021/07/19 07:39:34;;;;;;;;;;;17.60;99.90;;;;;;5074859;28;19987;-60
2021/07/19 07:41:59;;;;;;;;;;;17.70;99.90;;;;;;5080359;28;19913;-58
2021/07/19 07:44:25;;;;;;;;;;;17.70;99.90;;;;;;5083034;28;19922;-57
2021/07/19 07:46:51;;;;;;;;;;;17.70;99.20;;;;;;5081358;28;19961;-60
2021/07/19 07:49:16;;;;;;;;;;;17.80;99.90;;;;;;5083986;28;20006;-60
2021/07/19 07:51:42;;;;;;;;;;;17.80;99.90;;;;;;5083765;28;19917;-56
2021/07/19 07:54:07;;;;;;;;;;;17.90;99.90;;;;;;5081876;28;19908;-57
2021/07/19 07:56:33;;;;;;;;;;;17.90;98.60;;;;;;5082063;28;20323;-61
2021/07/19 07:58:58;;;;;;;;;;;17.80;99.60;;;;;;5079947;28;19916;-56
2021/07/19 08:01:24;;;;;;;;;;;17.80;99.80;;;;;;5081817;28;19913;-59
2021/07/19 08:03:50;;;;;;;;;;;17.90;99.90;;;;;;5080557;28;19908;-59
2021/07/19 08:06:15;;;;;;;;;;;18.00;99.90;;;;;;5081967;28;19909;-60
2021/07/19 08:08:41;;;;;;;;;;;18.10;99.90;;;;;;5083156;28;19915;-58
2021/07/19 08:11:06;;;;;;;;;;;18.20;99.90;;;;;;5080873;28;19952;-59
2021/07/19 08:13:32;;;;;;;;;;;18.00;99.70;;;;;;5085631;28;20499;-59
2021/07/19 08:15:57;;;;;;;;;;;18.10;99.90;;;;;;5083486;28;19908;-61
2021/07/19 08:18:22;;;;;;;;;;;18.10;99.90;;;;;;5086405;28;20027;-56
2021/07/19 08:20:48;;;;;;;;;;;18.30;99.90;;;;;;5084241;28;19934;-60
2021/07/19 08:23:14;;;;;;;;;;;18.30;99.90;;;;;;5085335;28;19915;-61
2021/07/19 08:25:40;;;;;;;;;;;18.10;99.60;;;;;;5068793;28;20003;-57
2021/07/19 08:28:05;;;;;;;;;;;18.40;99.90;;;;;;5085305;28;20416;-59
2021/07/19 08:30:31;;;;;;;;;;;18.60;99.90;;;;;;5085870;28;19916;-57
2021/07/19 08:32:58;;;;;;;;;;;18.70;99.90;;;;;;5083329;28;19908;-57
2021/07/19 08:35:23;;;;;;;;;;;18.90;99.90;;;;;;5066981;28;20003;-58
2021/07/19 08:37:49;;;;;;;;;;;19.00;99.70;;;;;;5084564;28;19952;-57
2021/07/19 08:40:16;;;;;;;;;;;19.10;98.50;;;;;;5086472;28;20068;-58
2021/07/19 08:42:41;;;;;;;;;;;19.10;98.30;;;;;;5086214;28;19915;-57
2021/07/19 08:45:08;;;;;;;;;;;19.20;98.10;;;;;;5083322;28;20390;-58
2021/07/19 08:47:35;;;;;;;;;;;19.10;97.70;;;;;;5085708;28;20348;-58
2021/07/19 08:50:00;;;;;;;;;;;19.10;97.80;;;;;;5084019;28;19940;-56
2021/07/19 08:52:26;;;;;;;;;;;18.90;97.70;;;;;;5086030;28;19908;-57
2021/07/19 08:54:51;;;;;;;;;;;18.90;97.80;;;;;;5085345;28;20314;-60
2021/07/19 08:57:19;;;;;;;;;;;18.90;98.60;;;;;;5084208;28;20527;-58
2021/07/19 08:59:46;;;;;;;;;;;19.00;99.20;;;;;;5085616;28;19985;-59
2021/07/19 09:02:11;;;;;;;;;;;19.00;97.90;;;;;;5083386;28;19912;-59
2021/07/19 09:04:37;;;;;;;;;;;18.90;97.60;;;;;;5066628;28;20028;-59
2021/07/19 09:07:03;;;;;;;;;;;18.90;98.40;;;;;;5084463;28;20303;-58
2021/07/19 09:09:29;;;;;;;;;;;18.70;97.80;;;;;;5085584;28;20327;-59
2021/07/19 09:11:56;;;;;;;;;;;18.80;98.10;;;;;;5084365;28;20393;-56
2021/07/19 09:14:21;;;;;;;;;;;18.80;98.20;;;;;;5084028;28;20038;-59
2021/07/19 09:16:48;;;;;;;;;;;18.80;97.90;;;;;;5084751;28;19968;-57
2021/07/19 09:19:15;;;;;;;;;;;18.80;97.40;;;;;;5082914;28;19999;-59
2021/07/19 09:21:42;;;;;;;;;;;18.80;97.20;;;;;;5084551;28;19991;-57
2021/07/19 09:24:09;;;;;;;;;;;18.70;98.10;;;;;;5083550;28;19917;-59
2021/07/19 09:26:34;;;;;;;;;;;18.70;98.20;;;;;;5084676;28;19912;-59
2021/07/19 09:29:00;;;;;;;;;;;18.80;98.80;;;;;;5064955;28;20074;-56
2021/07/19 09:31:42;;;;;;;;;;;18.70;97.70;;;;;;5083581;28;19958;-59
2021/07/19 09:34:15;;;;;;;;;;;18.80;98.10;;;;;;5085259;28;19922;-57
2021/07/19 09:36:56;;;;;;;;;;;18.80;98.00;;;;;;5086577;28;19908;-55
2021/07/19 09:39:21;;;;;;;;;;;18.90;97.70;;;;;;5077633;28;19913;-58
2021/07/19 09:41:47;;;;;;;;;;;19.00;98.20;;;;;;5080864;28;19909;-57
2021/07/19 09:44:13;;;;;;;;;;;19.00;97.40;;;;;;5084205;28;20382;-59
2021/07/19 09:46:40;;;;;;;;;;;19.10;98.30;;;;;;5084231;28;20282;-55
2021/07/19 09:49:05;;;;;;;;;;;19.10;96.40;;;;;;5082298;28;20339;-58
2021/07/19 09:51:33;;;;;;;;;;;18.90;96.70;;;;;;5067301;28;19910;-55
2021/07/19 09:54:11;;;;;;;;;;;18.70;97.20;;;;;;5063563;28;20377;-56
2021/07/19 09:56:38;;;;;;;;;;;18.70;98.20;;;;;;5082804;28;19954;-59
2021/07/19 09:59:11;;;;;;;;;;;18.80;98.30;;;;;;5082013;28;20641;-58
2021/07/19 10:01:38;;;;;;;;;;;18.80;98.40;;;;;;5083156;28;19939;-58
2021/07/19 10:04:10;;;;;;;;;;;18.90;97.70;;;;;;5081905;28;19932;-58
2021/07/19 10:06:36;;;;;;;;;;;19.00;98.90;;;;;;5083475;28;19912;-58
2021/07/19 10:09:04;;;;;;;;;;;19.30;98.30;;;;;;5082912;28;19947;-57
2021/07/19 10:11:32;;;;;;;;;;;19.40;98.60;;;;;;5083712;28;19915;-60
2021/07/19 10:13:58;;;;;;;;;;;19.70;99.20;;;;;;5081551;28;19922;-60
2021/07/19 10:16:27;;;;;;;;;;;19.90;99.40;;;;;;5083230;28;19912;-59
2021/07/19 10:18:53;;;;;;;;;;;20.10;98.60;;;;;;5081794;28;19908;-58
2021/07/19 10:21:20;;;;;;;;;;;20.20;98.50;;;;;;5083081;28;19908;-57
2021/07/19 10:23:46;;;;;;;;;;;20.40;98.50;;;;;;5082970;28;19915;-57
2021/07/19 10:26:12;;;;;;;;;;;20.40;97.90;;;;;;5083268;28;20420;-59
2021/07/19 10:28:37;;;;;;;;;;;20.60;98.00;;;;;;5065832;28;19912;-59
2021/07/19 10:31:03;;;;;;;;;;;20.70;98.20;;;;;;5081029;28;19916;-57
2021/07/19 10:33:29;;;;;;;;;;;20.80;97.60;;;;;;5083375;28;19908;-59
2021/07/19 10:35:57;;;;;;;;;;;20.80;96.70;;;;;;5080252;28;20302;-56
2021/07/19 10:38:25;;;;;;;;;;;20.80;97.00;;;;;;5082923;28;20007;-60
2021/07/19 10:40:55;;;;;;;;;;;20.70;96.90;;;;;;5082817;28;20357;-58
2021/07/19 10:43:21;;;;;;;;;;;20.60;96.70;;;;;;5079075;28;20035;-59
2021/07/19 10:45:50;;;;;;;;;;;20.50;97.70;;;;;;5085893;28;20010;-58
2021/07/19 10:48:22;;;;;;;;;;;20.50;97.60;;;;;;5075927;28;19908;-58
2021/07/19 10:50:47;;;;;;;;;;;20.40;96.90;;;;;;5086855;28;19908;-58
2021/07/19 10:53:22;;;;;;;;;;;20.30;96.80;;;;;;5080581;28;19909;-61
2021/07/19 10:56:01;;;;;;;;;;;20.30;97.20;;;;;;5080001;28;19947;-59
2021/07/19 10:58:39;;;;;;;;;;;20.30;97.00;;;;;;5076079;28;19919;-59
2021/07/19 11:01:05;;;;;;;;;;;20.30;96.80;;;;;;5063786;28;19908;-60
2021/07/19 11:03:40;;;;;;;;;;;20.40;97.00;;;;;;5084138;28;20016;-59
2021/07/19 11:06:05;;;;;;;;;;;20.40;96.60;;;;;;5081200;28;20013;-59
2021/07/19 11:08:31;;;;;;;;;;;20.30;96.90;;;;;;5067194;28;20476;-60
2021/07/19 11:10:57;;;;;;;;;;;19.90;97.10;;;;;;5080968;28;20337;-59
2021/07/19 11:13:30;;;;;;;;;;;19.90;97.70;;;;;;5083209;28;19914;-57
2021/07/19 11:15:56;;;;;;;;;;;20.00;98.00;;;;;;5079865;28;19917;-57
2021/07/19 11:18:25;;;;;;;;;;;20.10;97.60;;;;;;5083019;28;19908;-59
2021/07/19 11:20:51;;;;;;;;;;;20.00;97.60;;;;;;5063060;28;19984;-56
2021/07/19 11:23:34;;;;;;;;;;;20.00;97.40;;;;;;5082172;28;19912;-57
2021/07/19 11:26:00;;;;;;;;;;;20.00;98.00;;;;;;5082211;28;19913;-59
2021/07/19 11:28:30;;;;;;;;;;;20.00;98.10;;;;;;5082803;28;20409;-59
2021/07/19 11:31:09;;;;;;;;;;;19.80;98.00;;;;;;5080275;28;19917;-58
2021/07/19 11:33:35;;;;;;;;;;;19.80;98.80;;;;;;5064779;28;19911;-58
2021/07/19 11:36:02;;;;;;;;;;;19.80;98.80;;;;;;5081848;28;20398;-59
2021/07/19 11:38:35;;;;;;;;;;;19.90;98.70;;;;;;5083134;28;20378;-59
2021/07/19 11:41:11;;;;;;;;;;;20.00;99.20;;;;;;5063851;28;20060;-59
2021/07/19 11:43:38;;;;;;;;;;;20.10;98.80;;;;;;5079371;28;19915;-58
2021/07/19 11:46:04;;;;;;;;;;;20.30;99.30;;;;;;5086570;28;19916;-59
2021/07/19 11:48:29;;;;;;;;;;;20.40;99.30;;;;;;5086482;28;19916;-60
2021/07/19 11:50:56;;;;;;;;;;;20.40;99.20;;;;;;5094359;28;19908;-59
2021/07/19 11:53:21;;;;;;;;;;;20.50;99.30;;;;;;5085773;28;19997;-56
2021/07/19 11:55:47;;;;;;;;;;;20.60;97.50;;;;;;5085315;28;19909;-57
2021/07/19 11:58:14;;;;;;;;;;;20.50;96.50;;;;;;5091848;28;20363;-59
2021/07/19 12:00:41;;;;;;;;;;;20.70;98.30;;;;;;5086009;28;19917;-58
2021/07/19 12:03:07;;;;;;;;;;;20.80;97.70;;;;;;5092418;28;19908;-55
2021/07/19 12:05:33;;;;;;;;;;;20.90;97.20;;;;;;5084990;28;19966;-58
2021/07/19 12:08:02;;;;;;;;;;;20.80;96.90;;;;;;5093329;28;20389;-59
2021/07/19 12:10:28;;;;;;;;;;;20.90;97.60;;;;;;5085066;28;19999;-59
2021/07/19 12:12:54;;;;;;;;;;;20.80;96.10;;;;;;5085446;28;19991;-59
2021/07/19 12:15:19;;;;;;;;;;;20.50;95.80;;;;;;5090572;28;19908;-57
2021/07/19 12:17:45;;;;;;;;;;;20.70;97.40;;;;;;5085183;28;19915;-57
2021/07/19 12:20:13;;;;;;;;;;;20.70;97.50;;;;;;5091872;28;20007;-58
2021/07/19 12:22:39;;;;;;;;;;;20.40;96.40;;;;;;5085900;28;19912;-58
2021/07/19 12:25:05;;;;;;;;;;;20.30;97.30;;;;;;5093192;28;19965;-59
2021/07/19 12:27:30;;;;;;;;;;;20.20;98.20;;;;;;5085016;28;19909;-58
2021/07/19 12:29:56;;;;;;;;;;;20.10;98.10;;;;;;5085644;28;19984;-55
2021/07/19 12:32:21;;;;;;;;;;;20.00;98.20;;;;;;5090403;28;20398;-59
2021/07/19 12:34:47;;;;;;;;;;;20.00;99.20;;;;;;5067125;28;19908;-54
2021/07/19 12:37:13;;;;;;;;;;;20.00;98.30;;;;;;5091778;28;19909;-57
2021/07/19 12:39:45;;;;;;;;;;;19.80;99.00;;;;;;5084737;28;19908;-57
2021/07/19 12:42:15;;;;;;;;;;;19.80;98.70;;;;;;5088076;28;19914;-57
2021/07/19 12:44:44;;;;;;;;;;;19.80;99.30;;;;;;5087664;28;19916;-57
2021/07/19 12:47:09;;;;;;;;;;;19.80;98.60;;;;;;5088595;28;20382;-57
2021/07/19 12:49:38;;;;;;;;;;;19.80;98.40;;;;;;5088595;28;19962;-57
2021/07/19 12:52:04;;;;;;;;;;;19.60;97.90;;;;;;5069738;28;19935;-56
2021/07/19 12:54:30;;;;;;;;;;;19.70;98.60;;;;;;5088203;28;19909;-59
2021/07/19 12:56:56;;;;;;;;;;;19.70;99.10;;;;;;5086229;28;20350;-56
2021/07/19 12:59:22;;;;;;;;;;;19.80;98.80;;;;;;5084871;28;19995;-57
2021/07/19 13:01:48;;;;;;;;;;;19.80;98.30;;;;;;5083940;28;19908;-56
2021/07/19 13:04:20;;;;;;;;;;;19.90;99.30;;;;;;5085832;28;20339;-59
2021/07/19 13:06:46;;;;;;;;;;;20.10;98.70;;;;;;5085523;28;19909;-57
2021/07/19 13:09:19;;;;;;;;;;;20.20;98.20;;;;;;5085178;28;19908;-57
2021/07/19 13:11:44;;;;;;;;;;;20.30;98.40;;;;;;5085213;28;20409;-57
2021/07/19 13:14:15;;;;;;;;;;;20.00;97.10;;;;;;5082607;28;19917;-55
2021/07/19 13:16:42;;;;;;;;;;;19.70;98.00;;;;;;5084589;28;19910;-58
2021/07/19 13:19:07;;;;;;;;;;;19.50;98.20;;;;;;5083364;28;19916;-59
2021/07/19 13:21:33;;;;;;;;;;;19.40;97.50;;;;;;5085350;28;19909;-57
2021/07/19 13:23:59;;;;;;;;;;;19.40;98.30;;;;;;5084419;28;19912;-59
2021/07/19 13:26:29;;;;;;;;;;;19.50;97.30;;;;;;5084870;28;19947;-58
2021/07/19 13:29:02;;;;;;;;;;;19.40;97.70;;;;;;5084361;28;19935;-56
2021/07/19 13:31:28;;;;;;;;;;;19.50;96.60;;;;;;5110949;22;20114;-49
2021/07/19 13:33:53;;;;;;;;;;;19.60;97.80;;;;;;5092096;28;19987;-52
2021/07/19 13:36:28;;;;;;;;;;;19.80;96.80;;;;;;5091622;28;19961;-51
2021/07/19 13:38:53;;;;;;;;;;;20.00;95.70;;;;;;5092586;28;19912;-51
2021/07/19 13:41:22;;;;;;;;;;;20.20;96.10;;;;;;5073595;28;19962;-50
2021/07/19 13:43:47;;;;;;;;;;;20.20;95.30;;;;;;5092252;28;19963;-54
2021/07/19 13:46:13;;;;;;;;;;;20.20;96.50;;;;;;5091886;28;20351;-51
2021/07/19 13:48:38;;;;;;;;;;;20.20;96.30;;;;;;5092078;28;19908;-53
2021/07/19 13:51:04;;;;;;;;;;;20.30;96.50;;;;;;5073671;28;19909;-53
2021/07/19 13:53:30;;;;;;;;;;;20.30;96.20;;;;;;5092074;28;19919;-52
2021/07/19 13:55:56;;;;;;;;;;;20.40;96.00;;;;;;5091695;28;19990;-47
2021/07/19 13:58:22;;;;;;;;;;;20.40;95.70;;;;;;5091818;28;20404;-50
2021/07/19 14:00:48;;;;;;;;;;;20.30;95.20;;;;;;5091606;28;19951;-51
2021/07/19 14:03:13;;;;;;;;;;;20.40;94.60;;;;;;5091967;28;20069;-56
2021/07/19 14:05:43;;;;;;;;;;;20.40;94.30;;;;;;5091682;28;19958;-52
2021/07/19 14:08:08;;;;;;;;;;;20.20;95.10;;;;;;5092032;28;19908;-48
2021/07/19 14:10:34;;;;;;;;;;;20.30;96.40;;;;;;5090258;28;19916;-53
2021/07/19 14:13:01;;;;;;;;;;;20.40;95.90;;;;;;5091647;28;19908;-56
2021/07/19 14:15:27;;;;;;;;;;;20.50;96.30;;;;;;5073088;28;19917;-51